Estació municipal de St. Hilari Sacalm (La Selva, Guilleries)

Consulta les dades en temps real de l'estació municipal de St. Hilari Sacalm





Hora UTC 12:50
Temperatura 25.4 ºC
Humitat 60.4 %
Pressió 1022.6 hPa
Pluja 0.0 mm
Velocitat vent 9.0 km/h
Direcció vent SE
Radiació solar 772.5 W/m²

Webcam

Dades diàries 2026-09-01



Hora UTC (hivern +1h; estiu +2h)
Temperatura (ºC) Humitat (%) Pressió (hPa) Velocitat vent (km/h) Precipitació (mm) Radiació solar (W/m²)
Hora UTC Aire Humitat Pressió Vel. Dir. Vel. Max Dir. Intent. màx 5 min. Rad. Sol.
00:05 18.6 94.2 1023.3 0.0 NNE 0.0 ENE 0.0 0.1
00:10 18.4 94.4 1023.3 0.0 NNE 0.0 ENE 0.0 0.1
00:15 18.4 94.9 1023.2 0.0 NNE 0.0 ENE 0.0 0.1
00:20 18.5 95.2 1023.2 0.0 NNE 0.0 ENE 0.0 0.1
00:25 18.5 95.2 1023.2 0.0 NNE 0.0 ENE 0.0 0.1
00:30 18.4 95.5 1023.2 0.0 NNE 0.0 ENE 0.0 0.1
00:35 18.4 95.6 1023.1 0.0 NNE 0.0 ENE 0.0 0.1
00:40 18.3 95.6 1023.2 0.0 NNE 0.0 ENE 0.0 0.1
00:45 18.3 95.6 1023.2 0.0 NNE 0.0 ENE 0.0 0.1
00:50 18.4 95.9 1023.2 0.0 NNE 0.0 ENE 0.0 0.1
00:55 18.4 95.8 1023.1 0.0 NNE 0.0 ENE 0.0 0.1
01:00 18.3 95.7 1023.1 0.0 NNE 0.0 ENE 0.0 0.1
01:05 18.3 95.8 1023.1 0.0 NNE 0.0 ENE 0.0 0.1
01:10 18.4 95.9 1023.1 0.0 NNE 0.0 SE 0.0 0.1
01:15 18.4 95.9 1023.1 0.0 NNE 0.0 SSE 0.0 0.1
01:20 18.4 95.8 1023.1 0.0 NNE 0.0 SSE 0.0 0.1
01:25 18.4 95.8 1023.1 0.0 NNE 0.0 SSE 0.0 0.1
01:30 18.4 95.7 1023.1 0.0 NNE 0.0 SSE 0.0 0.1
01:35 18.4 95.5 1023.1 0.0 NNE 0.0 SSE 0.0 0.1
01:40 18.4 95.5 1023.1 0.0 NNE 0.0 SSE 0.0 0.1
01:45 18.4 95.5 1023.1 0.0 NNE 0.0 SSE 0.0 0.1
01:50 18.5 95.6 1023.1 0.0 NNE 0.0 SSE 0.0 0.1
01:55 18.4 95.3 1023.1 0.0 NNE 0.0 SSE 0.0 0.1
02:00 18.3 95.1 1023.0 0.0 NNE 0.0 SSE 0.0 0.1
02:05 18.4 95.0 1023.0 0.0 NNE 0.0 W 0.0 0.1
02:10 18.3 95.1 1023.0 0.0 NNE 0.0 W 0.0 0.1
02:15 18.5 95.3 1023.0 0.0 NNE 0.0 S 0.0 0.1
02:20 18.6 95.1 1023.0 0.0 NNE 0.0 S 0.0 0.2
02:25 18.7 94.7 1022.9 0.0 NNE 0.0 SSW 0.0 0.1
02:30 18.7 94.5 1022.9 0.0 NNE 0.0 S 0.0 0.1
02:35 18.7 94.3 1022.9 0.0 NNE 0.0 S 0.0 0.1
02:40 18.6 94.0 1022.8 0.0 NNE 0.0 S 0.0 0.1
02:45 18.5 93.9 1022.7 0.0 NNE 0.0 WSW 0.0 0.1
02:50 18.4 93.8 1022.7 0.0 NNE 0.0 WNW 0.0 0.1
02:55 18.4 94.2 1022.6 0.0 NNE 0.0 WNW 0.0 0.1
03:00 18.3 94.2 1022.6 1.6 WNW 14.2 W 0.0 0.1
03:05 18.3 94.4 1022.6 2.6 WNW 11.5 NW 0.0 0.1
03:10 18.4 94.5 1022.6 3.3 WNW 11.5 WNW 0.0 0.1
03:15 18.4 94.4 1022.5 3.4 NW 14.2 W 0.0 0.2
03:20 18.3 94.3 1022.4 1.6 NNW 8.8 WNW 0.0 0.1
03:25 18.3 94.3 1022.4 0.0 NNE 0.0 NW 0.0 0.1
03:30 18.2 94.2 1022.3 1.8 WNW 11.5 NW 0.0 0.1
03:35 18.2 94.2 1022.3 2.2 NW 14.2 NNW 0.0 0.1
03:40 18.3 94.1 1022.3 3.1 NW 14.2 NW 0.0 0.1
03:45 18.3 93.8 1022.2 1.4 NW 11.5 NNW 0.0 0.1
03:50 18.2 93.7 1022.2 0.4 WNW 8.8 WNW 0.0 0.2
03:55 18.2 93.8 1022.2 0.4 WNW 8.8 NW 0.0 0.1
04:00 18.1 93.8 1022.2 0.0 NNE 0.0 WSW 0.0 0.1
04:05 18.1 93.9 1022.3 0.0 NNE 0.0 NW 0.0 0.1
04:10 18.0 93.9 1022.3 0.0 NNE 0.0 SW 0.0 0.1
04:15 18.0 94.1 1022.2 1.5 W 8.8 W 0.0 0.1
04:20 18.0 94.1 1022.2 1.4 W 11.5 W 0.0 0.1
04:25 18.0 94.1 1022.2 0.0 NW 3.4 NW 0.0 0.1
04:30 18.0 93.9 1022.1 0.0 NNE 0.0 W 0.0 0.1
04:35 18.0 94.0 1022.1 0.0 NNE 0.0 WNW 0.0 0.1
04:40 18.0 94.1 1022.1 0.1 WNW 6.1 WNW 0.0 0.1
04:45 18.0 94.1 1022.1 0.0 NNE 0.0 SW 0.0 0.2
04:50 17.9 93.9 1022.1 0.0 NNE 0.0 W 0.0 0.2
04:55 17.8 93.9 1022.1 0.0 NNE 0.0 W 0.0 0.2
05:00 17.7 94.0 1022.1 0.0 NNE 0.0 WSW 0.0 0.4
05:05 17.6 94.1 1022.1 0.7 WSW 11.5 WSW 0.0 0.8
05:10 17.6 94.4 1022.1 0.0 SW 3.4 SW 0.0 1.7
05:15 17.7 94.5 1022.1 0.9 WNW 11.5 SW 0.0 2.9
05:20 17.7 94.6 1022.2 1.7 W 8.8 NW 0.0 4.4
05:25 17.7 94.5 1022.2 0.0 NNE 0.0 SW 0.0 6.5
05:30 17.7 94.6 1022.2 0.0 NNE 0.0 WSW 0.0 9.2
05:35 17.7 94.7 1022.3 0.0 NNE 0.0 W 0.0 12.1
05:40 17.6 94.7 1022.3 0.0 NNE 0.0 W 0.0 13.8
05:45 17.7 94.9 1022.3 0.0 NNE 0.0 WNW 0.0 16.8
05:50 17.8 95.0 1022.4 0.0 NNE 0.0 WNW 0.0 21.6
05:55 17.9 94.9 1022.4 0.0 NNE 0.0 NW 0.0 22.0
06:00 17.9 94.8 1022.4 0.0 NNE 0.0 WNW 0.0 25.0
06:05 17.9 94.7 1022.4 0.0 NNE 0.0 NW 0.0 31.0
06:10 18.0 94.6 1022.4 0.0 NNE 0.0 WNW 0.0 32.8
06:15 18.1 94.4 1022.4 0.0 NNE 0.0 WSW 0.0 31.5
06:20 18.1 94.2 1022.4 0.0 NNE 0.0 WNW 0.0 33.4
06:25 18.1 94.1 1022.4 0.0 NNE 0.0 WNW 0.0 35.7
06:30 18.2 94.0 1022.5 0.0 NNE 0.0 SSW 0.0 41.4
06:35 18.3 93.9 1022.5 0.0 NNE 0.0 W 0.0 48.1
06:40 18.4 93.7 1022.5 0.0 NNE 0.0 WNW 0.0 57.4
06:45 18.5 93.5 1022.5 0.0 NNE 0.0 SW 0.0 71.2
06:50 18.6 93.2 1022.6 0.0 NNE 0.0 SW 0.0 88.7
06:55 18.7 92.7 1022.6 0.0 NNE 0.0 SW 0.0 95.6
07:00 18.9 92.2 1022.6 0.0 NNE 0.0 SW 0.0 94.3
07:05 19.1 91.9 1022.6 0.0 NNE 0.0 WSW 0.0 101.3
07:10 19.4 91.7 1022.7 0.0 NNE 0.0 WSW 0.0 159.4
07:15 20.0 90.9 1022.7 0.0 NNE 0.0 WSW 0.0 303.0
07:20 20.5 87.4 1022.6 0.0 NNE 0.0 W 0.0 321.2
07:25 20.8 84.0 1022.7 0.0 NNE 0.0 NNE 0.0 335.5
07:30 21.6 81.0 1022.7 0.0 NNE 0.0 NE 0.0 350.4
07:35 21.8 79.2 1022.7 0.0 NNE 0.0 NNW 0.0 368.1
07:40 22.4 77.0 1022.8 0.0 NNE 0.0 NW 0.0 399.9
07:45 22.5 76.8 1022.8 0.0 NNE 0.0 NNW 0.0 434.1
07:50 23.2 73.9 1022.7 2.5 NW 8.8 WNW 0.0 370.4
07:55 22.7 73.9 1022.7 1.9 NNW 8.8 NNW 0.0 128.0
08:00 22.0 75.9 1022.6 0.0 NNE 0.0 NNW 0.0 179.9
08:05 21.9 77.9 1022.6 0.0 NNE 0.0 WNW 0.0 260.4
08:10 22.1 75.7 1022.6 1.9 W 8.8 WSW 0.0 379.0
08:15 22.7 74.7 1022.6 0.6 NW 8.8 NW 0.0 511.1
08:20 23.5 70.9 1022.7 0.7 WNW 8.8 NW 0.0 524.6
08:25 23.9 69.0 1022.7 0.0 W 3.4 W 0.0 512.1
08:30 23.9 66.7 1022.7 0.0 NNE 0.0 NNW 0.0 449.5
08:35 23.9 67.1 1022.7 0.0 NNE 0.0 ESE 0.0 546.8
08:40 24.0 67.9 1022.7 2.0 NE 8.8 NNE 0.0 537.9
08:45 24.0 70.9 1022.7 2.4 ENE 8.8 ENE 0.0 556.2
08:50 24.2 70.0 1022.7 2.4 ENE 11.5 NE 0.0 566.1
08:55 24.2 69.6 1022.7 0.0 NNE 0.0 ENE 0.0 585.2
09:00 24.4 69.5 1022.7 4.3 ENE 11.5 ENE 0.0 605.6
09:05 24.1 70.5 1022.8 8.5 ENE 11.5 ENE 0.0 621.1
09:10 24.0 71.2 1022.8 6.0 ENE 11.5 ENE 0.0 664.0
09:15 23.8 71.1 1022.8 7.0 ENE 11.5 NE 0.0 397.1
09:20 23.6 71.8 1022.8 4.2 ENE 11.5 ENE 0.0 649.0
09:25 23.7 70.7 1022.9 3.9 ENE 11.5 ENE 0.0 672.7
09:30 24.0 69.9 1022.9 4.8 ENE 14.2 NE 0.0 711.5
09:35 24.0 69.4 1022.9 8.2 ENE 16.9 NE 0.0 698.7
09:40 24.0 69.0 1023.0 3.7 SE 11.5 SE 0.0 555.8
09:45 23.9 69.3 1022.9 0.0 NNE 0.0 SE 0.0 683.4
09:50 24.0 68.3 1023.0 1.5 E 14.2 ESE 0.0 616.6
09:55 24.0 68.3 1023.0 6.3 SE 16.9 ESE 0.0 508.6
10:00 23.6 69.9 1023.0 4.7 SE 14.2 SE 0.0 631.0
10:05 23.8 68.1 1023.0 4.4 SE 11.5 SE 0.0 741.9
10:10 24.1 66.7 1023.1 7.2 SSE 16.9 SSE 0.0 746.1
10:15 24.4 64.9 1023.1 13.3 SSE 25.0 SE 0.0 760.5
10:20 23.9 65.9 1023.2 9.5 SE 19.6 ESE 0.0 729.6
10:25 24.5 64.9 1023.2 10.5 S 22.3 S 0.0 736.0
10:30 24.6 64.1 1023.1 10.2 SSE 19.6 SE 0.0 746.7
10:35 24.7 64.3 1023.1 6.4 SSE 14.2 SSE 0.0 747.3
10:40 24.7 64.1 1023.0 10.7 SSE 19.6 SSE 0.0 625.7
10:45 24.6 64.0 1023.0 9.7 SSE 19.6 SSE 0.0 762.3
10:50 24.8 62.6 1023.1 8.6 SSE 16.9 E 0.0 680.0
10:55 24.8 62.3 1023.0 9.0 SE 16.9 SE 0.0 464.2
11:00 24.6 63.3 1023.0 10.4 SE 27.7 SSE 0.0 314.7
11:05 23.9 65.0 1023.1 12.5 SE 22.3 SE 0.0 273.8
11:10 23.8 66.1 1023.1 10.1 SSE 19.6 SE 0.0 205.3
11:15 23.8 66.7 1023.0 6.9 SE 19.6 E 0.0 363.5
11:20 24.3 65.7 1023.0 12.8 SE 22.3 E 0.0 820.0
11:25 25.1 64.1 1023.0 7.5 SE 16.9 SSE 0.0 794.4
11:30 25.1 63.5 1023.0 12.2 SSE 22.3 SE 0.0 783.5
11:35 25.0 64.6 1022.9 14.4 SE 25.0 ESE 0.0 765.3
11:40 25.0 63.4 1022.9 11.5 SE 25.0 SE 0.0 785.1
11:45 24.7 64.5 1022.9 15.0 ESE 27.7 ESE 0.0 804.0
11:50 25.2 63.0 1022.9 11.1 SE 19.6 E 0.0 782.0
11:55 25.5 61.4 1022.8 10.8 SSE 25.0 S 0.0 778.0
12:00 25.4 60.4 1022.8 12.7 ESE 22.3 ESE 0.0 778.2
12:05 25.5 59.3 1022.8 12.9 SSE 25.0 S 0.0 776.2
12:10 25.2 60.1 1022.8 10.0 SE 22.3 SSE 0.0 773.6
12:15 25.5 58.9 1022.7 12.5 SE 22.3 S 0.0 776.2
12:20 25.7 58.2 1022.6 12.3 SE 33.1 SSE 0.0 772.6
12:25 25.6 58.2 1022.6 14.7 ESE 25.0 S 0.0 772.5
12:30 25.1 59.4 1022.5 12.8 SE 22.3 SE 0.0 779.7
12:35 25.2 59.8 1022.5 15.6 ESE 25.0 ESE 0.0 708.0
12:40 25.2 59.9 1022.6 16.2 ESE 25.0 ESE 0.0 474.6
12:45 25.1 60.6 1022.6 10.1 SE 25.0 SSE 0.0 501.6
12:50 25.4 60.4 1022.6 9.0 SE 22.3 ESE 0.0 772.5
Màxima 25.7 95.9 1023.3 16.2 ESE 33.1 SSE 0.0 820.0
Mínima 17.6 58.2 1022.1
Total 0.0